Bookmark and Share
Track history (hours):
 

Seacod

Last reported at 2014-Apr-24 05:33 UTC. Time now 2014-Apr-24 06:22 UTC.
Position N 54°10' E 009°25'.

Length 188 m; draft 7.3 m.

Type: Ship. MMSI: 218019000.

NotesDate/timePositionNaut miles runAvg speedWind from/ knotsBaromVisibWave heightAir tempDewpointWater temp
2014-Apr-24 05:33N 54°10' E 009°25'5 5.4
2014-Apr-24 04:33N 54°05' E 009°19'7 6.6
2014-Apr-24 03:33N 53°59' E 009°17'3 3.3
2014-Apr-24 02:33N 53°56' E 009°13'4 3.8
2014-Apr-24 01:33N 53°54' E 009°09'2 1.5
2014-Apr-24 00:33N 53°53' E 009°07'1 0.7
2014-Apr-23 23:33N 53°53' E 009°05'1 0.7
2014-Apr-23 22:34N 53°52' E 009°04'1010.2
2014-Apr-23 21:34N 53°50' E 008°47'1110.7
2014-Apr-23 20:33N 53°58' E 008°34'1111.5
2014-Apr-23 19:33N 53°60' E 008°15'1111.1
2014-Apr-23 18:34N 53°59' E 007°56'1212.3
2014-Apr-23 17:33N 53°56' E 007°36'1513.0
2014-Apr-23 16:25N 53°52' E 007°12'1513.3
2014-Apr-23 15:18N 53°49' E 006°47'1013.6
2014-Apr-23 14:33N 53°46' E 006°31'1413.7
2014-Apr-23 13:33N 53°42' E 006°08'1413.7
2014-Apr-23 12:33N 53°38' E 005°46'1413.7
2014-Apr-23 11:33N 53°34' E 005°24'1413.8
2014-Apr-23 10:33N 53°29' E 005°02'1513.2
2014-Apr-23 09:26N 53°21' E 004°42'3113.5
2014-Apr-23 07:06N 52°53' E 004°17'812.7
2014-Apr-23 06:29N 52°47' E 004°09'1212.5
2014-Apr-23 05:33N 52°38' E 003°56'1212.2
2014-Apr-23 04:33N 52°30' E 003°42'2811.8
2014-Apr-23 02:10N 52°09' E 003°11'3111.8
2014-Apr-22 23:33N 51°51' E 002°30'1312.8
2014-Apr-22 22:33N 51°46' E 002°11'1413.8
2014-Apr-22 21:34N 51°36' E 001°57'1413.7
2014-Apr-22 20:34N 51°29' E 001°37'1211.9
2014-Apr-22 19:34N 51°29' E 001°18'1515.0
2014-Apr-22 18:34N 51°29' E 000°54'1514.7
2014-Apr-22 17:33N 51°30' E 000°30'9 8.7
2014-Apr-22 16:34N 51°27' E 000°17'1 0.5
2014-Apr-22 15:34N 51°28' E 000°16'0 0.0
2014-Apr-22 14:34N 51°28' E 000°16'0 0.0
2014-Apr-22 13:34N 51°28' E 000°16'0 0.0
2014-Apr-22 12:33N 51°28' E 000°16'0 0.0
2014-Apr-22 11:34N 51°28' E 000°16'0 0.0
2014-Apr-22 10:34N 51°28' E 000°16'0 0.0
2014-Apr-22 09:34N 51°28' E 000°16'0 0.0
2014-Apr-22 08:34N 51°28' E 000°16'0 0.0
2014-Apr-22 07:34N 51°28' E 000°16'0 0.0
2014-Apr-22 06:34N 51°28' E 000°16'0 0.0
2014-Apr-22 05:34N 51°28' E 000°16'0 0.0
2014-Apr-22 04:34N 51°28' E 000°16'0 0.0
2014-Apr-22 03:34N 51°28' E 000°16'0 0.0
2014-Apr-22 02:34N 51°28' E 000°16'0 0.0
2014-Apr-22 01:34N 51°28' E 000°16'0 0.0
2014-Apr-22 00:34N 51°28' E 000°16'0 0.0
2014-Apr-21 23:34N 51°28' E 000°16'0 0.0
2014-Apr-21 22:33N 51°28' E 000°16'0 0.0
2014-Apr-21 21:33N 51°28' E 000°16'0 0.0
2014-Apr-21 20:34N 51°28' E 000°16'0 0.0
2014-Apr-21 19:34N 51°28' E 000°16'0 0.0
2014-Apr-21 18:34N 51°28' E 000°16'0 0.0
2014-Apr-21 17:33N 51°28' E 000°16'0 0.0
2014-Apr-21 16:34N 51°28' E 000°16'0 0.0
2014-Apr-21 15:34N 51°28' E 000°16'0 0.0
2014-Apr-21 14:34N 51°28' E 000°16'0 0.0
2014-Apr-21 13:33N 51°28' E 000°16'0 0.0
2014-Apr-21 12:33N 51°28' E 000°16'0 0.0
2014-Apr-21 11:33N 51°28' E 000°16'0 0.0
2014-Apr-21 10:33N 51°28' E 000°16'0 0.0
2014-Apr-21 09:33N 51°28' E 000°16'0 0.0
2014-Apr-21 08:33N 51°28' E 000°16'0 0.0
2014-Apr-21 07:33N 51°28' E 000°16'0 0.0
2014-Apr-21 06:33N 51°28' E 000°16'0 0.0
2014-Apr-21 05:33N 51°28' E 000°16'0 0.0
2014-Apr-21 04:33N 51°28' E 000°16'0 0.0
2014-Apr-21 03:34N 51°28' E 000°16'0 0.0
2014-Apr-21 02:34N 51°28' E 000°16'0 0.0
2014-Apr-21 01:34N 51°28' E 000°16'0 0.0
2014-Apr-21 00:33N 51°28' E 000°16'0 0.0
2014-Apr-20 23:34N 51°28' E 000°16'0 0.0
2014-Apr-20 22:34N 51°28' E 000°16'0 0.0
2014-Apr-20 21:34N 51°28' E 000°16'0 0.0
2014-Apr-20 20:34N 51°28' E 000°16'0 0.0
2014-Apr-20 19:33N 51°28' E 000°16'0 0.0
2014-Apr-20 18:33N 51°28' E 000°16'0 0.0
2014-Apr-20 17:33N 51°28' E 000°16'0 0.0
2014-Apr-20 16:33N 51°28' E 000°16'0 0.0
2014-Apr-20 15:34N 51°28' E 000°16'0 0.0
2014-Apr-20 14:34N 51°28' E 000°16'0 0.0
2014-Apr-20 13:34N 51°28' E 000°16'0 0.1
2014-Apr-20 12:33N 51°28' E 000°16'0 0.0
2014-Apr-20 11:33N 51°28' E 000°16'0 0.0
2014-Apr-20 10:32N 51°28' E 000°16'0 0.1
2014-Apr-20 09:34N 51°28' E 000°16'0 0.0
2014-Apr-20 08:34N 51°28' E 000°16'0 0.0
2014-Apr-20 07:34N 51°28' E 000°16'0 0.0
2014-Apr-20 06:34N 51°28' E 000°16'0 0.0
2014-Apr-20 05:34N 51°28' E 000°16'0 0.0
2014-Apr-20 04:34N 51°28' E 000°16'0 0.0
2014-Apr-20 03:34N 51°28' E 000°16'0 0.0
2014-Apr-20 02:34N 51°28' E 000°16'0 0.1
2014-Apr-20 01:34N 51°28' E 000°16'6 6.1
2014-Apr-20 00:34N 51°27' E 000°26'1111.2
2014-Apr-19 23:34N 51°30' E 000°43'7 6.5
2014-Apr-19 22:30N 51°31' E 000°54'0 0.1
2014-Apr-19 21:34N 51°31' E 000°54'0 0.1
2014-Apr-19 20:32N 51°31' E 000°54'0 0.0
2014-Apr-19 19:28N 51°31' E 000°54'0 0.0
2014-Apr-19 18:31N 51°31' E 000°54'0 0.0
2014-Apr-19 17:31N 51°31' E 000°54'0 0.0
2014-Apr-19 16:31N 51°31' E 000°54'0 0.2
2014-Apr-19 15:32N 51°30' E 000°54'2 2.5
2014-Apr-19 14:34N 51°29' E 000°57'1514.8
2014-Apr-19 13:34N 51°36' E 001°18'1514.8
2014-Apr-19 12:34N 51°48' E 001°33'8 8.0
2014-Apr-19 11:33N 51°53' E 001°42'1 0.7
2014-Apr-19 10:33N 51°53' E 001°41'0 0.0
2014-Apr-19 09:33N 51°53' E 001°41'0 0.0
2014-Apr-19 08:33N 51°53' E 001°41'0 0.1
2014-Apr-19 07:33N 51°53' E 001°41'0 0.1
2014-Apr-19 06:33N 51°54' E 001°41'0 0.0
2014-Apr-19 05:33N 51°54' E 001°41'0 0.0
2014-Apr-19 04:33N 51°54' E 001°41'0 0.0
2014-Apr-19 03:33N 51°54' E 001°41'0 0.3
2014-Apr-19 02:33N 51°53' E 001°41'2 1.7
2014-Apr-19 01:33N 51°52' E 001°43'1212.0
2014-Apr-19 00:34N 51°52' E 002°03'36312.8
2014-Apr-17 20:13N 56°54' E 007°50'812.0
2014-Apr-17 19:33N 57°01' E 007°59'8811.0
2014-Apr-17 11:32N 57°48' E 010°17'1212.1
2014-Apr-17 10:33N 57°49' E 010°39'1212.5
2014-Apr-17 09:33N 57°43' E 010°59'1413.6
2014-Apr-17 08:33N 57°33' E 011°18'1313.3
2014-Apr-17 07:33N 57°23' E 011°32'1413.9
2014-Apr-17 06:33N 57°09' E 011°40'1414.2
2014-Apr-17 05:33N 56°56' E 011°48'1313.5
2014-Apr-17 04:33N 56°42' E 011°52'1514.5
2014-Apr-17 03:33N 56°30' E 011°38'1613.8
2014-Apr-17 02:25N 56°17' E 011°23'10112.1
2014-Apr-16 18:04N 54°36' E 011°00'713.6
2014-Apr-16 17:33N 54°36' E 011°12'1414.0
2014-Apr-16 16:34N 54°30' E 011°34'1413.8
2014-Apr-16 15:33N 54°26' E 011°57'1111.3
2014-Apr-16 14:33N 54°32' E 012°13'1312.9
2014-Apr-16 13:33N 54°41' E 012°29'1413.7
2014-Apr-16 12:34N 54°48' E 012°49'1414.1
2014-Apr-16 11:34N 54°53' E 013°12'1414.0
2014-Apr-16 10:33N 54°58' E 013°35'1414.0
2014-Apr-16 09:33N 55°02' E 013°58'1413.6
2014-Apr-16 08:33N 55°13' E 014°14'1414.4
2014-Apr-16 07:33N 55°24' E 014°30'1413.9
2014-Apr-16 06:33N 55°31' E 014°51'1514.2
2014-Apr-16 05:32N 55°38' E 015°14'4514.1
2014-Apr-16 02:20N 55°50' E 016°31'31812.8
2014-Apr-15 01:33N 59°38' E 023°27'1414.1
2014-Apr-15 00:33N 59°42' E 023°54'1414.0
2014-Apr-14 23:34N 59°46' E 024°20'6913.7
2014-Apr-14 18:33N 60°01' E 026°34'  

Dump ship's entire track history

sailing weather and tide predictions

Seacod — DDPW — position and weather